Thousand Oaks, California
Current Conditions -  °F | °C
As of 4:55 PM on Thursday 27 Nov 2014 (Local Time) from KCMA Reporting Station
Clear Clear  
Wind Chill: 68°   Ceiling: Unl
Heat Index: 68°   Visibility: 10mi
Dew Point: 50°   Wind: 5mph
Humidity: 52%   Direction: 220°SW
Pressure: 30.01"   Gusts: NA
Location:  34.19°N, 118.89°W
Report Text: KCMA 280055Z AUTO 22004KT 10SM CLR 20/10 A3001 RMK AO2 SLP170 T02000100 TSNO
Loading
Personal Weather Stations






























Interactive Weather Map New forecast layout! Learn more

10-Day Weather Forecast

Advertisements
Track Severe Weather on mobile